Weather at Anchor River Airpark

Public forecast

Using degrees Fahrenheit for public forecast. Weather courtesy of forecast.io.

Closest aviation weather report (METAR) to Anchor River Airpark

Closest report is Homer Airport, 14.8 nm (27.4 km) SE. Retrieved 2020/09/27 03:53 UTC (24 minutes ago):

PAHO 270353Z 08003KT 10SM SCT047 SCT055 09/08 A2943

Closest aviation forecast (TAF) to Anchor River Airpark

Closest forecast is Homer Airport, 14.8 nm (27.4 km) SE. Retrieved 2020-09-27 00:34 UTC (4 hours ago):

TAF PAHO 262332Z 2700/2724 VRB06KT P6SM VCSH FEW007 OVC040 FM270600 02012KT P6SM VCSH SCT025 BKN050 FM271200 02015G25KT P6SM VCSH BKN040